sensor_id;sensor_type;location;lat;lon;timestamp;P1;durP1;ratioP1;P2;durP2;ratioP2
23658;SDS011;12006;42.666;23.326;2023-05-07T00:01:37;14.23;;;10.40;;
23658;SDS011;12006;42.666;23.326;2023-05-07T00:04:02;10.27;;;8.73;;
23658;SDS011;12006;42.666;23.326;2023-05-07T00:06:28;11.00;;;8.70;;
23658;SDS011;12006;42.666;23.326;2023-05-07T00:08:55;10.10;;;8.40;;
23658;SDS011;12006;42.666;23.326;2023-05-07T00:11:22;10.40;;;9.40;;
23658;SDS011;12006;42.666;23.326;2023-05-07T00:13:47;10.50;;;9.03;;
23658;SDS011;12006;42.666;23.326;2023-05-07T00:16:13;10.70;;;9.27;;
23658;SDS011;12006;42.666;23.326;2023-05-07T00:18:38;11.17;;;9.37;;
23658;SDS011;12006;42.666;23.326;2023-05-07T00:21:04;10.00;;;8.10;;
23658;SDS011;12006;42.666;23.326;2023-05-07T00:23:29;9.27;;;7.87;;
23658;SDS011;12006;42.666;23.326;2023-05-07T00:25:55;10.60;;;9.07;;
23658;SDS011;12006;42.666;23.326;2023-05-07T00:28:21;9.83;;;8.20;;
23658;SDS011;12006;42.666;23.326;2023-05-07T00:30:46;9.60;;;8.63;;
23658;SDS011;12006;42.666;23.326;2023-05-07T00:33:11;8.67;;;7.80;;
23658;SDS011;12006;42.666;23.326;2023-05-07T00:35:37;9.87;;;7.40;;
23658;SDS011;12006;42.666;23.326;2023-05-07T00:38:02;8.33;;;7.53;;
23658;SDS011;12006;42.666;23.326;2023-05-07T00:40:28;12.63;;;10.40;;
23658;SDS011;12006;42.666;23.326;2023-05-07T00:42:53;10.87;;;9.60;;
23658;SDS011;12006;42.666;23.326;2023-05-07T00:45:22;12.27;;;10.37;;
23658;SDS011;12006;42.666;23.326;2023-05-07T00:47:54;11.80;;;10.60;;
23658;SDS011;12006;42.666;23.326;2023-05-07T00:50:24;13.80;;;10.60;;
23658;SDS011;12006;42.666;23.326;2023-05-07T00:52:50;12.13;;;10.70;;
23658;SDS011;12006;42.666;23.326;2023-05-07T00:55:15;13.83;;;11.73;;
23658;SDS011;12006;42.666;23.326;2023-05-07T00:57:41;12.30;;;10.70;;
23658;SDS011;12006;42.666;23.326;2023-05-07T01:00:07;14.40;;;10.57;;
23658;SDS011;12006;42.666;23.326;2023-05-07T01:02:35;11.60;;;10.40;;
23658;SDS011;12006;42.666;23.326;2023-05-07T01:05:00;11.93;;;10.67;;
23658;SDS011;12006;42.666;23.326;2023-05-07T01:07:28;12.80;;;10.90;;
23658;SDS011;12006;42.666;23.326;2023-05-07T01:09:55;11.17;;;10.07;;
23658;SDS011;12006;42.666;23.326;2023-05-07T01:12:22;12.13;;;10.53;;
23658;SDS011;12006;42.666;23.326;2023-05-07T01:14:48;12.47;;;10.53;;
23658;SDS011;12006;42.666;23.326;2023-05-07T01:17:15;11.63;;;10.17;;
23658;SDS011;12006;42.666;23.326;2023-05-07T01:19:41;12.40;;;10.40;;
23658;SDS011;12006;42.666;23.326;2023-05-07T01:22:09;12.57;;;10.80;;
23658;SDS011;12006;42.666;23.326;2023-05-07T01:24:39;12.60;;;11.27;;
23658;SDS011;12006;42.666;23.326;2023-05-07T01:27:06;12.27;;;10.80;;
23658;SDS011;12006;42.666;23.326;2023-05-07T01:29:31;11.37;;;10.27;;
23658;SDS011;12006;42.666;23.326;2023-05-07T01:31:57;11.53;;;10.07;;
23658;SDS011;12006;42.666;23.326;2023-05-07T01:34:25;9.87;;;8.87;;
23658;SDS011;12006;42.666;23.326;2023-05-07T01:36:52;10.90;;;8.80;;
23658;SDS011;12006;42.666;23.326;2023-05-07T01:39:21;8.57;;;7.67;;
23658;SDS011;12006;42.666;23.326;2023-05-07T01:41:48;8.97;;;7.40;;
23658;SDS011;12006;42.666;23.326;2023-05-07T01:44:14;8.00;;;7.10;;
23658;SDS011;12006;42.666;23.326;2023-05-07T01:46:41;9.53;;;7.23;;
23658;SDS011;12006;42.666;23.326;2023-05-07T01:49:07;7.97;;;6.83;;
23658;SDS011;12006;42.666;23.326;2023-05-07T01:51:32;8.23;;;6.37;;
23658;SDS011;12006;42.666;23.326;2023-05-07T01:53:59;11.10;;;7.30;;
23658;SDS011;12006;42.666;23.326;2023-05-07T01:56:25;7.10;;;6.50;;
23658;SDS011;12006;42.666;23.326;2023-05-07T01:58:51;8.83;;;6.70;;
23658;SDS011;12006;42.666;23.326;2023-05-07T02:01:16;6.63;;;5.90;;
23658;SDS011;12006;42.666;23.326;2023-05-07T02:03:42;5.53;;;5.03;;
23658;SDS011;12006;42.666;23.326;2023-05-07T02:06:08;5.60;;;4.27;;
23658;SDS011;12006;42.666;23.326;2023-05-07T02:08:33;4.43;;;4.03;;
23658;SDS011;12006;42.666;23.326;2023-05-07T02:10:59;5.90;;;4.23;;
23658;SDS011;12006;42.666;23.326;2023-05-07T02:13:26;4.70;;;4.30;;
23658;SDS011;12006;42.666;23.326;2023-05-07T02:15:53;4.63;;;3.07;;
23658;SDS011;12006;42.666;23.326;2023-05-07T02:18:19;6.17;;;3.70;;
23658;SDS011;12006;42.666;23.326;2023-05-07T02:20:44;4.03;;;3.37;;
23658;SDS011;12006;42.666;23.326;2023-05-07T02:23:09;3.27;;;2.67;;
23658;SDS011;12006;42.666;23.326;2023-05-07T02:25:35;5.27;;;3.30;;
23658;SDS011;12006;42.666;23.326;2023-05-07T02:28:00;2.80;;;2.60;;
23658;SDS011;12006;42.666;23.326;2023-05-07T02:30:26;3.30;;;2.70;;
23658;SDS011;12006;42.666;23.326;2023-05-07T02:32:51;3.23;;;2.77;;
23658;SDS011;12006;42.666;23.326;2023-05-07T02:35:16;3.07;;;2.87;;
23658;SDS011;12006;42.666;23.326;2023-05-07T02:37:42;4.23;;;3.13;;
23658;SDS011;12006;42.666;23.326;2023-05-07T02:40:08;3.10;;;2.80;;
23658;SDS011;12006;42.666;23.326;2023-05-07T02:42:33;3.77;;;3.23;;
23658;SDS011;12006;42.666;23.326;2023-05-07T02:44:59;3.03;;;2.60;;
23658;SDS011;12006;42.666;23.326;2023-05-07T02:47:24;3.57;;;3.20;;
23658;SDS011;12006;42.666;23.326;2023-05-07T02:49:53;3.50;;;2.90;;
23658;SDS011;12006;42.666;23.326;2023-05-07T02:52:18;2.83;;;2.63;;
23658;SDS011;12006;42.666;23.326;2023-05-07T02:54:44;3.27;;;2.43;;
23658;SDS011;12006;42.666;23.326;2023-05-07T02:57:09;2.60;;;2.40;;
23658;SDS011;12006;42.666;23.326;2023-05-07T02:59:35;4.20;;;3.13;;
23658;SDS011;12006;42.666;23.326;2023-05-07T03:02:00;5.43;;;2.77;;
23658;SDS011;12006;42.666;23.326;2023-05-07T03:04:26;2.47;;;2.33;;
23658;SDS011;12006;42.666;23.326;2023-05-07T03:06:51;2.80;;;2.50;;
23658;SDS011;12006;42.666;23.326;2023-05-07T03:09:16;3.53;;;2.63;;
23658;SDS011;12006;42.666;23.326;2023-05-07T03:11:42;3.63;;;2.33;;
23658;SDS011;12006;42.666;23.326;2023-05-07T03:14:07;3.63;;;3.07;;
23658;SDS011;12006;42.666;23.326;2023-05-07T03:16:33;3.27;;;3.00;;
23658;SDS011;12006;42.666;23.326;2023-05-07T03:18:58;2.73;;;2.50;;
23658;SDS011;12006;42.666;23.326;2023-05-07T03:21:23;3.70;;;3.40;;
23658;SDS011;12006;42.666;23.326;2023-05-07T03:23:49;4.07;;;2.70;;
23658;SDS011;12006;42.666;23.326;2023-05-07T03:26:14;4.60;;;3.13;;
23658;SDS011;12006;42.666;23.326;2023-05-07T03:28:40;4.53;;;2.83;;
23658;SDS011;12006;42.666;23.326;2023-05-07T03:31:05;3.07;;;2.73;;
23658;SDS011;12006;42.666;23.326;2023-05-07T03:33:33;4.13;;;2.73;;
23658;SDS011;12006;42.666;23.326;2023-05-07T03:35:59;5.80;;;3.20;;
23658;SDS011;12006;42.666;23.326;2023-05-07T03:38:24;3.07;;;2.70;;
23658;SDS011;12006;42.666;23.326;2023-05-07T03:40:50;3.43;;;2.80;;
23658;SDS011;12006;42.666;23.326;2023-05-07T03:43:15;3.10;;;2.73;;
23658;SDS011;12006;42.666;23.326;2023-05-07T03:45:40;2.60;;;2.40;;
23658;SDS011;12006;42.666;23.326;2023-05-07T03:48:06;6.00;;;3.90;;
23658;SDS011;12006;42.666;23.326;2023-05-07T03:50:32;3.50;;;3.27;;
23658;SDS011;12006;42.666;23.326;2023-05-07T03:52:57;3.27;;;2.30;;
23658;SDS011;12006;42.666;23.326;2023-05-07T03:55:22;4.73;;;3.60;;
23658;SDS011;12006;42.666;23.326;2023-05-07T03:57:48;5.07;;;4.00;;
23658;SDS011;12006;42.666;23.326;2023-05-07T04:00:13;3.60;;;3.30;;
23658;SDS011;12006;42.666;23.326;2023-05-07T04:02:39;4.83;;;3.30;;
23658;SDS011;12006;42.666;23.326;2023-05-07T04:05:04;4.37;;;2.97;;
23658;SDS011;12006;42.666;23.326;2023-05-07T04:07:30;5.57;;;3.80;;
23658;SDS011;12006;42.666;23.326;2023-05-07T04:09:55;3.63;;;3.33;;
23658;SDS011;12006;42.666;23.326;2023-05-07T04:12:20;4.23;;;3.53;;
23658;SDS011;12006;42.666;23.326;2023-05-07T04:14:46;3.87;;;2.93;;
23658;SDS011;12006;42.666;23.326;2023-05-07T04:17:11;3.53;;;2.60;;
23658;SDS011;12006;42.666;23.326;2023-05-07T04:19:37;4.00;;;3.33;;
23658;SDS011;12006;42.666;23.326;2023-05-07T04:22:02;2.77;;;2.20;;
23658;SDS011;12006;42.666;23.326;2023-05-07T04:24:30;4.20;;;3.77;;
23658;SDS011;12006;42.666;23.326;2023-05-07T04:26:57;6.10;;;3.47;;
23658;SDS011;12006;42.666;23.326;2023-05-07T04:29:23;7.03;;;4.67;;
23658;SDS011;12006;42.666;23.326;2023-05-07T04:31:49;5.53;;;3.33;;
23658;SDS011;12006;42.666;23.326;2023-05-07T04:34:14;3.90;;;3.10;;
23658;SDS011;12006;42.666;23.326;2023-05-07T04:36:40;4.27;;;3.30;;
23658;SDS011;12006;42.666;23.326;2023-05-07T04:39:05;4.37;;;3.93;;
23658;SDS011;12006;42.666;23.326;2023-05-07T04:41:31;4.40;;;3.40;;
23658;SDS011;12006;42.666;23.326;2023-05-07T04:43:57;4.27;;;3.90;;
23658;SDS011;12006;42.666;23.326;2023-05-07T04:46:24;6.27;;;4.33;;
23658;SDS011;12006;42.666;23.326;2023-05-07T04:48:49;4.50;;;3.87;;
23658;SDS011;12006;42.666;23.326;2023-05-07T04:51:15;4.63;;;3.77;;
23658;SDS011;12006;42.666;23.326;2023-05-07T04:53:40;4.07;;;3.60;;
23658;SDS011;12006;42.666;23.326;2023-05-07T04:56:06;4.23;;;2.53;;
23658;SDS011;12006;42.666;23.326;2023-05-07T04:58:32;3.23;;;2.93;;
23658;SDS011;12006;42.666;23.326;2023-05-07T05:00:57;4.27;;;2.70;;
23658;SDS011;12006;42.666;23.326;2023-05-07T05:03:23;3.73;;;3.13;;
23658;SDS011;12006;42.666;23.326;2023-05-07T05:05:49;3.73;;;2.83;;
23658;SDS011;12006;42.666;23.326;2023-05-07T05:08:16;7.37;;;3.93;;
23658;SDS011;12006;42.666;23.326;2023-05-07T05:10:42;4.20;;;3.37;;
23658;SDS011;12006;42.666;23.326;2023-05-07T05:13:08;3.73;;;3.30;;
23658;SDS011;12006;42.666;23.326;2023-05-07T05:15:34;4.03;;;3.63;;
23658;SDS011;12006;42.666;23.326;2023-05-07T05:17:59;6.23;;;4.37;;
23658;SDS011;12006;42.666;23.326;2023-05-07T05:20:25;4.00;;;3.23;;
23658;SDS011;12006;42.666;23.326;2023-05-07T05:22:50;6.47;;;4.10;;
23658;SDS011;12006;42.666;23.326;2023-05-07T05:25:16;5.00;;;3.93;;
23658;SDS011;12006;42.666;23.326;2023-05-07T05:27:41;5.83;;;3.77;;
23658;SDS011;12006;42.666;23.326;2023-05-07T05:30:07;3.47;;;3.17;;
23658;SDS011;12006;42.666;23.326;2023-05-07T05:32:32;5.07;;;4.33;;
23658;SDS011;12006;42.666;23.326;2023-05-07T05:34:58;3.97;;;3.37;;
23658;SDS011;12006;42.666;23.326;2023-05-07T05:37:23;5.03;;;4.43;;
23658;SDS011;12006;42.666;23.326;2023-05-07T05:39:49;5.67;;;3.30;;
23658;SDS011;12006;42.666;23.326;2023-05-07T05:42:15;4.70;;;3.90;;
23658;SDS011;12006;42.666;23.326;2023-05-07T05:44:40;4.43;;;3.67;;
23658;SDS011;12006;42.666;23.326;2023-05-07T05:47:06;5.00;;;3.93;;
23658;SDS011;12006;42.666;23.326;2023-05-07T05:49:31;5.37;;;4.10;;
23658;SDS011;12006;42.666;23.326;2023-05-07T05:51:56;5.60;;;3.63;;
23658;SDS011;12006;42.666;23.326;2023-05-07T05:54:22;4.43;;;3.83;;
23658;SDS011;12006;42.666;23.326;2023-05-07T05:56:47;5.63;;;3.87;;
23658;SDS011;12006;42.666;23.326;2023-05-07T05:59:13;4.50;;;3.43;;
23658;SDS011;12006;42.666;23.326;2023-05-07T06:01:38;3.50;;;3.20;;
23658;SDS011;12006;42.666;23.326;2023-05-07T06:04:04;5.10;;;3.77;;
23658;SDS011;12006;42.666;23.326;2023-05-07T06:06:29;3.17;;;2.75;;
23658;SDS011;12006;42.666;23.326;2023-05-07T06:08:56;4.50;;;3.35;;
23658;SDS011;12006;42.666;23.326;2023-05-07T06:11:22;4.78;;;3.55;;
23658;SDS011;12006;42.666;23.326;2023-05-07T06:13:47;3.97;;;3.13;;
23658;SDS011;12006;42.666;23.326;2023-05-07T06:16:13;3.42;;;3.03;;
23658;SDS011;12006;42.666;23.326;2023-05-07T06:18:39;4.82;;;3.25;;
23658;SDS011;12006;42.666;23.326;2023-05-07T06:21:04;4.43;;;3.55;;
23658;SDS011;12006;42.666;23.326;2023-05-07T06:23:30;4.57;;;3.53;;
23658;SDS011;12006;42.666;23.326;2023-05-07T06:25:55;5.63;;;3.13;;
23658;SDS011;12006;42.666;23.326;2023-05-07T06:28:21;4.60;;;3.42;;
23658;SDS011;12006;42.666;23.326;2023-05-07T06:30:46;4.03;;;3.55;;
23658;SDS011;12006;42.666;23.326;2023-05-07T06:33:12;3.25;;;2.83;;
23658;SDS011;12006;42.666;23.326;2023-05-07T06:35:37;5.57;;;3.90;;
23658;SDS011;12006;42.666;23.326;2023-05-07T06:38:02;4.70;;;3.63;;
23658;SDS011;12006;42.666;23.326;2023-05-07T06:40:28;4.05;;;3.28;;
23658;SDS011;12006;42.666;23.326;2023-05-07T06:42:53;4.15;;;3.75;;
23658;SDS011;12006;42.666;23.326;2023-05-07T06:45:19;4.38;;;3.47;;
23658;SDS011;12006;42.666;23.326;2023-05-07T06:47:45;5.35;;;3.42;;
23658;SDS011;12006;42.666;23.326;2023-05-07T06:50:10;3.58;;;3.28;;
23658;SDS011;12006;42.666;23.326;2023-05-07T06:52:36;4.00;;;3.22;;
23658;SDS011;12006;42.666;23.326;2023-05-07T06:55:01;5.25;;;4.03;;
23658;SDS011;12006;42.666;23.326;2023-05-07T06:57:27;3.17;;;2.72;;
23658;SDS011;12006;42.666;23.326;2023-05-07T06:59:52;8.13;;;3.92;;
23658;SDS011;12006;42.666;23.326;2023-05-07T07:02:18;3.65;;;3.33;;
23658;SDS011;12006;42.666;23.326;2023-05-07T07:04:43;4.75;;;3.60;;
23658;SDS011;12006;42.666;23.326;2023-05-07T07:07:10;3.35;;;3.05;;
23658;SDS011;12006;42.666;23.326;2023-05-07T07:09:35;4.45;;;3.10;;
23658;SDS011;12006;42.666;23.326;2023-05-07T07:12:01;5.78;;;4.13;;
23658;SDS011;12006;42.666;23.326;2023-05-07T07:14:26;4.63;;;4.18;;
23658;SDS011;12006;42.666;23.326;2023-05-07T07:16:51;4.50;;;3.65;;
23658;SDS011;12006;42.666;23.326;2023-05-07T07:19:17;3.92;;;3.28;;
23658;SDS011;12006;42.666;23.326;2023-05-07T07:21:42;5.50;;;3.90;;
23658;SDS011;12006;42.666;23.326;2023-05-07T07:24:08;3.83;;;3.10;;
23658;SDS011;12006;42.666;23.326;2023-05-07T07:26:33;3.88;;;3.08;;
23658;SDS011;12006;42.666;23.326;2023-05-07T07:28:59;3.78;;;3.42;;
23658;SDS011;12006;42.666;23.326;2023-05-07T07:31:24;4.53;;;3.05;;
23658;SDS011;12006;42.666;23.326;2023-05-07T07:33:50;4.15;;;3.25;;
23658;SDS011;12006;42.666;23.326;2023-05-07T07:36:15;3.40;;;3.10;;
23658;SDS011;12006;42.666;23.326;2023-05-07T07:38:41;2.95;;;2.70;;
23658;SDS011;12006;42.666;23.326;2023-05-07T07:41:07;3.85;;;3.38;;
23658;SDS011;12006;42.666;23.326;2023-05-07T07:43:33;4.32;;;3.03;;
23658;SDS011;12006;42.666;23.326;2023-05-07T07:45:59;3.78;;;3.38;;
23658;SDS011;12006;42.666;23.326;2023-05-07T07:48:24;2.70;;;2.50;;
23658;SDS011;12006;42.666;23.326;2023-05-07T07:50:50;4.00;;;3.03;;
23658;SDS011;12006;42.666;23.326;2023-05-07T07:53:18;4.70;;;3.33;;
23658;SDS011;12006;42.666;23.326;2023-05-07T07:55:44;4.07;;;3.03;;
23658;SDS011;12006;42.666;23.326;2023-05-07T07:58:09;4.65;;;3.97;;
23658;SDS011;12006;42.666;23.326;2023-05-07T08:00:34;3.45;;;2.75;;
23658;SDS011;12006;42.666;23.326;2023-05-07T08:03:00;5.13;;;3.65;;
23658;SDS011;12006;42.666;23.326;2023-05-07T08:05:28;4.70;;;3.38;;
23658;SDS011;12006;42.666;23.326;2023-05-07T08:07:53;4.90;;;3.78;;
23658;SDS011;12006;42.666;23.326;2023-05-07T08:10:19;4.32;;;3.85;;
23658;SDS011;12006;42.666;23.326;2023-05-07T08:12:48;4.22;;;3.67;;
23658;SDS011;12006;42.666;23.326;2023-05-07T08:15:14;4.55;;;3.97;;
23658;SDS011;12006;42.666;23.326;2023-05-07T08:17:39;5.28;;;3.85;;
23658;SDS011;12006;42.666;23.326;2023-05-07T08:20:05;4.45;;;3.72;;
23658;SDS011;12006;42.666;23.326;2023-05-07T08:22:31;4.78;;;4.28;;
23658;SDS011;12006;42.666;23.326;2023-05-07T08:24:57;5.30;;;4.32;;
23658;SDS011;12006;42.666;23.326;2023-05-07T08:27:22;4.88;;;4.10;;
23658;SDS011;12006;42.666;23.326;2023-05-07T08:29:47;5.43;;;4.30;;
23658;SDS011;12006;42.666;23.326;2023-05-07T08:32:13;4.30;;;3.08;;
23658;SDS011;12006;42.666;23.326;2023-05-07T08:34:39;3.38;;;3.08;;
23658;SDS011;12006;42.666;23.326;2023-05-07T08:37:05;4.32;;;3.13;;
23658;SDS011;12006;42.666;23.326;2023-05-07T08:39:30;3.70;;;3.10;;
23658;SDS011;12006;42.666;23.326;2023-05-07T08:41:55;4.35;;;3.60;;
23658;SDS011;12006;42.666;23.326;2023-05-07T08:44:26;3.42;;;3.13;;
23658;SDS011;12006;42.666;23.326;2023-05-07T08:46:53;4.15;;;3.47;;
23658;SDS011;12006;42.666;23.326;2023-05-07T08:49:20;3.55;;;2.80;;
23658;SDS011;12006;42.666;23.326;2023-05-07T08:51:46;7.57;;;3.30;;
23658;SDS011;12006;42.666;23.326;2023-05-07T08:54:12;3.72;;;2.75;;
23658;SDS011;12006;42.666;23.326;2023-05-07T08:56:41;2.85;;;2.65;;
23658;SDS011;12006;42.666;23.326;2023-05-07T08:59:06;2.97;;;2.78;;
23658;SDS011;12006;42.666;23.326;2023-05-07T09:01:32;2.72;;;2.50;;
23658;SDS011;12006;42.666;23.326;2023-05-07T09:04:00;3.30;;;3.00;;
23658;SDS011;12006;42.666;23.326;2023-05-07T09:06:25;4.53;;;2.88;;
23658;SDS011;12006;42.666;23.326;2023-05-07T09:08:52;3.83;;;3.30;;
23658;SDS011;12006;42.666;23.326;2023-05-07T09:11:22;4.32;;;2.85;;
23658;SDS011;12006;42.666;23.326;2023-05-07T09:13:48;3.30;;;3.10;;
23658;SDS011;12006;42.666;23.326;2023-05-07T09:16:17;3.20;;;2.90;;
23658;SDS011;12006;42.666;23.326;2023-05-07T09:18:45;3.00;;;2.70;;
23658;SDS011;12006;42.666;23.326;2023-05-07T09:21:16;2.90;;;2.60;;
23658;SDS011;12006;42.666;23.326;2023-05-07T09:23:42;3.97;;;2.47;;
23658;SDS011;12006;42.666;23.326;2023-05-07T09:26:07;2.90;;;2.70;;
23658;SDS011;12006;42.666;23.326;2023-05-07T09:28:43;3.70;;;3.10;;
23658;SDS011;12006;42.666;23.326;2023-05-07T09:31:09;4.25;;;2.75;;
23658;SDS011;12006;42.666;23.326;2023-05-07T09:33:36;2.55;;;2.35;;
23658;SDS011;12006;42.666;23.326;2023-05-07T09:36:02;2.47;;;2.00;;
23658;SDS011;12006;42.666;23.326;2023-05-07T09:38:28;2.33;;;2.10;;
23658;SDS011;12006;42.666;23.326;2023-05-07T09:41:07;2.15;;;1.95;;
23658;SDS011;12006;42.666;23.326;2023-05-07T09:43:35;2.35;;;2.15;;
23658;SDS011;12006;42.666;23.326;2023-05-07T09:46:02;2.13;;;1.95;;
23658;SDS011;12006;42.666;23.326;2023-05-07T09:48:30;2.05;;;1.85;;
23658;SDS011;12006;42.666;23.326;2023-05-07T09:51:01;2.58;;;2.38;;
23658;SDS011;12006;42.666;23.326;2023-05-07T09:53:29;3.10;;;2.30;;
23658;SDS011;12006;42.666;23.326;2023-05-07T09:55:55;3.08;;;2.60;;
23658;SDS011;12006;42.666;23.326;2023-05-07T09:58:22;2.28;;;2.10;;
23658;SDS011;12006;42.666;23.326;2023-05-07T10:00:49;2.53;;;2.33;;
23658;SDS011;12006;42.666;23.326;2023-05-07T10:03:15;2.40;;;2.20;;
23658;SDS011;12006;42.666;23.326;2023-05-07T10:05:42;1.98;;;1.88;;
23658;SDS011;12006;42.666;23.326;2023-05-07T10:08:09;2.17;;;2.00;;
23658;SDS011;12006;42.666;23.326;2023-05-07T10:10:35;2.60;;;2.40;;
23658;SDS011;12006;42.666;23.326;2023-05-07T10:13:01;2.28;;;2.08;;
23658;SDS011;12006;42.666;23.326;2023-05-07T10:15:27;2.40;;;1.90;;
23658;SDS011;12006;42.666;23.326;2023-05-07T10:17:54;2.33;;;1.88;;
23658;SDS011;12006;42.666;23.326;2023-05-07T10:20:20;1.90;;;1.80;;
23658;SDS011;12006;42.666;23.326;2023-05-07T10:22:47;2.45;;;2.25;;
23658;SDS011;12006;42.666;23.326;2023-05-07T10:25:20;2.30;;;2.10;;
23658;SDS011;12006;42.666;23.326;2023-05-07T10:27:50;2.00;;;1.80;;
23658;SDS011;12006;42.666;23.326;2023-05-07T10:33:35;2.58;;;2.10;;
23658;SDS011;12006;42.666;23.326;2023-05-07T10:36:02;2.00;;;1.90;;
23658;SDS011;12006;42.666;23.326;2023-05-07T10:38:29;2.25;;;2.05;;
23658;SDS011;12006;42.666;23.326;2023-05-07T10:40:55;2.67;;;2.47;;
23658;SDS011;12006;42.666;23.326;2023-05-07T10:43:21;2.25;;;2.05;;
23658;SDS011;12006;42.666;23.326;2023-05-07T10:48:34;2.92;;;2.72;;
23658;SDS011;12006;42.666;23.326;2023-05-07T10:51:26;2.70;;;2.45;;
23658;SDS011;12006;42.666;23.326;2023-05-07T10:56:43;2.58;;;2.38;;
23658;SDS011;12006;42.666;23.326;2023-05-07T11:01:49;2.67;;;2.47;;
23658;SDS011;12006;42.666;23.326;2023-05-07T11:04:19;3.33;;;2.10;;
23658;SDS011;12006;42.666;23.326;2023-05-07T11:07:24;2.20;;;2.00;;
23658;SDS011;12006;42.666;23.326;2023-05-07T11:12:45;2.63;;;2.42;;
23658;SDS011;12006;42.666;23.326;2023-05-07T11:15:03;2.60;;;2.40;;
23658;SDS011;12006;42.666;23.326;2023-05-07T11:17:33;2.50;;;2.30;;
23658;SDS011;12006;42.666;23.326;2023-05-07T11:20:01;2.67;;;2.30;;
23658;SDS011;12006;42.666;23.326;2023-05-07T11:24:55;2.80;;;2.60;;
23658;SDS011;12006;42.666;23.326;2023-05-07T11:27:25;3.53;;;2.67;;
23658;SDS011;12006;42.666;23.326;2023-05-07T11:29:52;2.60;;;2.40;;
23658;SDS011;12006;42.666;23.326;2023-05-07T11:35:11;2.35;;;2.15;;
23658;SDS011;12006;42.666;23.326;2023-05-07T11:37:37;2.88;;;2.05;;
23658;SDS011;12006;42.666;23.326;2023-05-07T11:40:07;4.85;;;2.80;;
23658;SDS011;12006;42.666;23.326;2023-05-07T11:42:35;2.28;;;2.17;;
23658;SDS011;12006;42.666;23.326;2023-05-07T11:45:05;2.25;;;1.92;;
23658;SDS011;12006;42.666;23.326;2023-05-07T11:47:32;2.33;;;2.13;;
23658;SDS011;12006;42.666;23.326;2023-05-07T11:50:07;2.28;;;2.08;;
23658;SDS011;12006;42.666;23.326;2023-05-07T11:52:33;2.28;;;1.88;;
23658;SDS011;12006;42.666;23.326;2023-05-07T11:54:59;2.42;;;2.22;;
23658;SDS011;12006;42.666;23.326;2023-05-07T11:57:26;2.53;;;2.33;;
23658;SDS011;12006;42.666;23.326;2023-05-07T11:59:53;3.53;;;2.28;;
23658;SDS011;12006;42.666;23.326;2023-05-07T12:02:19;2.08;;;1.88;;
23658;SDS011;12006;42.666;23.326;2023-05-07T12:04:45;2.50;;;2.33;;
23658;SDS011;12006;42.666;23.326;2023-05-07T12:07:16;3.63;;;3.33;;
23658;SDS011;12006;42.666;23.326;2023-05-07T12:09:43;2.38;;;2.20;;
23658;SDS011;12006;42.666;23.326;2023-05-07T12:12:09;2.72;;;2.53;;
23658;SDS011;12006;42.666;23.326;2023-05-07T12:14:42;3.60;;;3.25;;
23658;SDS011;12006;42.666;23.326;2023-05-07T12:17:08;2.38;;;2.17;;
23658;SDS011;12006;42.666;23.326;2023-05-07T12:19:36;2.47;;;2.28;;
23658;SDS011;12006;42.666;23.326;2023-05-07T12:22:03;2.08;;;1.98;;
23658;SDS011;12006;42.666;23.326;2023-05-07T12:24:29;2.50;;;2.30;;
23658;SDS011;12006;42.666;23.326;2023-05-07T12:27:06;1.95;;;1.85;;
23658;SDS011;12006;42.666;23.326;2023-05-07T12:29:31;1.90;;;1.80;;
23658;SDS011;12006;42.666;23.326;2023-05-07T12:31:57;2.20;;;2.10;;
23658;SDS011;12006;42.666;23.326;2023-05-07T12:34:23;1.73;;;1.60;;
23658;SDS011;12006;42.666;23.326;2023-05-07T12:36:49;1.60;;;1.50;;
23658;SDS011;12006;42.666;23.326;2023-05-07T12:39:14;1.77;;;1.67;;
23658;SDS011;12006;42.666;23.326;2023-05-07T12:41:55;1.95;;;1.85;;
23658;SDS011;12006;42.666;23.326;2023-05-07T12:44:23;1.50;;;1.40;;
23658;SDS011;12006;42.666;23.326;2023-05-07T12:46:50;1.40;;;1.30;;
23658;SDS011;12006;42.666;23.326;2023-05-07T12:49:16;1.60;;;1.50;;
23658;SDS011;12006;42.666;23.326;2023-05-07T12:51:43;1.75;;;1.65;;
23658;SDS011;12006;42.666;23.326;2023-05-07T12:54:08;2.13;;;1.90;;
23658;SDS011;12006;42.666;23.326;2023-05-07T12:56:37;1.60;;;1.50;;
23658;SDS011;12006;42.666;23.326;2023-05-07T12:59:02;2.17;;;1.95;;
23658;SDS011;12006;42.666;23.326;2023-05-07T13:01:29;1.83;;;1.63;;
23658;SDS011;12006;42.666;23.326;2023-05-07T13:04:00;2.28;;;2.08;;
23658;SDS011;12006;42.666;23.326;2023-05-07T13:06:27;1.80;;;1.70;;
23658;SDS011;12006;42.666;23.326;2023-05-07T13:08:53;1.98;;;1.77;;
23658;SDS011;12006;42.666;23.326;2023-05-07T13:11:18;2.03;;;1.58;;
23658;SDS011;12006;42.666;23.326;2023-05-07T13:13:43;2.17;;;2.00;;
23658;SDS011;12006;42.666;23.326;2023-05-07T13:16:09;1.60;;;1.50;;
23658;SDS011;12006;42.666;23.326;2023-05-07T13:18:37;1.90;;;1.80;;
23658;SDS011;12006;42.666;23.326;2023-05-07T13:21:03;1.55;;;1.45;;
23658;SDS011;12006;42.666;23.326;2023-05-07T13:23:29;1.75;;;1.42;;
23658;SDS011;12006;42.666;23.326;2023-05-07T13:25:54;1.73;;;1.63;;
23658;SDS011;12006;42.666;23.326;2023-05-07T13:28:20;1.40;;;1.30;;
23658;SDS011;12006;42.666;23.326;2023-05-07T13:30:46;1.70;;;1.60;;
23658;SDS011;12006;42.666;23.326;2023-05-07T13:33:12;1.50;;;1.40;;
23658;SDS011;12006;42.666;23.326;2023-05-07T13:35:38;1.65;;;1.55;;
23658;SDS011;12006;42.666;23.326;2023-05-07T13:38:04;1.60;;;1.50;;
23658;SDS011;12006;42.666;23.326;2023-05-07T13:40:30;1.65;;;1.55;;
23658;SDS011;12006;42.666;23.326;2023-05-07T13:42:57;2.05;;;1.70;;
23658;SDS011;12006;42.666;23.326;2023-05-07T13:45:23;1.70;;;1.60;;
23658;SDS011;12006;42.666;23.326;2023-05-07T13:47:51;1.75;;;1.65;;
23658;SDS011;12006;42.666;23.326;2023-05-07T13:50:16;1.73;;;1.63;;
23658;SDS011;12006;42.666;23.326;2023-05-07T13:52:43;1.85;;;1.75;;
23658;SDS011;12006;42.666;23.326;2023-05-07T13:55:15;1.42;;;1.40;;
23658;SDS011;12006;42.666;23.326;2023-05-07T13:57:44;3.25;;;1.50;;
23658;SDS011;12006;42.666;23.326;2023-05-07T14:00:10;1.55;;;1.45;;
23658;SDS011;12006;42.666;23.326;2023-05-07T14:02:36;1.70;;;1.60;;
23658;SDS011;12006;42.666;23.326;2023-05-07T14:05:02;1.92;;;1.80;;
23658;SDS011;12006;42.666;23.326;2023-05-07T14:07:27;1.95;;;1.77;;
23658;SDS011;12006;42.666;23.326;2023-05-07T14:09:53;2.03;;;1.73;;
23658;SDS011;12006;42.666;23.326;2023-05-07T14:12:19;1.60;;;1.50;;
23658;SDS011;12006;42.666;23.326;2023-05-07T14:14:44;2.30;;;2.10;;
23658;SDS011;12006;42.666;23.326;2023-05-07T14:17:10;1.90;;;1.80;;
23658;SDS011;12006;42.666;23.326;2023-05-07T14:19:35;1.67;;;1.58;;
23658;SDS011;12006;42.666;23.326;2023-05-07T14:22:01;1.92;;;1.67;;
23658;SDS011;12006;42.666;23.326;2023-05-07T14:24:27;1.70;;;1.60;;
23658;SDS011;12006;42.666;23.326;2023-05-07T14:26:52;2.00;;;1.90;;
23658;SDS011;12006;42.666;23.326;2023-05-07T14:29:18;1.85;;;1.75;;
23658;SDS011;12006;42.666;23.326;2023-05-07T14:31:44;1.75;;;1.65;;
23658;SDS011;12006;42.666;23.326;2023-05-07T14:34:10;1.88;;;1.77;;
23658;SDS011;12006;42.666;23.326;2023-05-07T14:36:35;1.92;;;1.70;;
23658;SDS011;12006;42.666;23.326;2023-05-07T14:39:01;1.73;;;1.63;;
23658;SDS011;12006;42.666;23.326;2023-05-07T14:41:27;1.90;;;1.80;;
23658;SDS011;12006;42.666;23.326;2023-05-07T14:43:52;1.70;;;1.60;;
23658;SDS011;12006;42.666;23.326;2023-05-07T14:46:18;2.20;;;2.10;;
23658;SDS011;12006;42.666;23.326;2023-05-07T14:48:44;1.88;;;1.77;;